Aviation Digital Data Service (ADDS)

Output produced by METARs form (0520 UTC 16 February 2019)
found at http://www.aviationweather.gov/metar/data/
 
Forecast for: UHSS (JUZNO-SAHALINSK , RU)
Text: TAF UHSS 160200Z 1603/1709 28003MPS 9999 SCT030CB
Forecast period: 0300 UTC 16 February 2019 to 0900 UTC 17 February 2019
Forecast type: FROM: standard forecast or significant change
Winds: from the W (280 degrees) at 7 MPH (6 knots; 3.1 m/s)
Visibility: 6 or more miles 10+ km)
Ceiling: at least 12,000 feet AGL
Clouds: scattered clouds at 3000 feet AGL
Weather: no significant weather forecast for this period